.
WxDataArchive / Data Records for 2013-03-11
2013-03-10 March 2013 2013-03-12

Data Records for Monday, 11 March 2013

Time	Temp	Chill	HIndex	Humid	Dewpt	 Wind 	HiWind	WindDir	Rain 	Barom 
-----	----	-----	------	-----	-----	------	------	-------	-----	----- 
00:00	55.0	55.0	55.0	54	38.7	2	6	112	0.00	29.762 
00:05	55.0	55.0	55.0	54	38.7	2	6	112	0.00	29.762 
00:10	54.8	54.8	54.8	54	38.5	1	4	112	0.00	29.762 
00:15	54.8	54.8	54.8	55	38.9	1	3	68	0.00	29.753 
00:20	54.5	54.5	54.5	56	39.1	1	3	68	0.00	29.753 
00:25	54.4	54.4	54.4	57	39.5	1	4	68	0.00	29.753 
00:30	54.4	54.4	54.4	57	39.5	1	3	90	0.00	29.750 
00:35	54.2	54.2	54.2	57	39.3	1	4	90	0.00	29.750 
00:40	54.2	54.2	54.2	57	39.3	1	4	90	0.00	29.750 
00:45	54.1	54.1	54.1	57	39.2	1	4	90	0.00	29.743 
00:50	53.9	53.9	53.9	57	39.0	0	2	90	0.00	29.743 
00:55	53.8	53.8	53.8	58	39.4	1	3	90	0.00	29.743 
01:00	53.6	53.6	53.6	58	39.2	1	3	90	0.00	29.734 
01:05	53.6	53.6	53.6	58	39.2	1	3	90	0.00	29.734 
01:10	53.6	53.6	53.6	58	39.2	1	4	90	0.00	29.734 
01:15	53.6	53.6	53.6	58	39.2	2	6	90	0.00	29.722 
01:20	53.8	53.8	53.8	58	39.4	2	6	112	0.00	29.722 
01:25	53.8	53.8	53.8	58	39.4	1	4	135	0.00	29.722 
01:30	53.9	53.9	53.9	58	39.5	2	5	112	0.00	29.712 
01:35	53.9	53.9	53.9	58	39.5	2	6	90	0.00	29.712 
01:40	53.9	53.9	53.9	58	39.5	1	4	135	0.00	29.712 
01:45	53.8	53.8	53.8	58	39.4	1	5	68	0.00	29.706 
01:50	53.6	53.6	53.6	59	39.6	1	3	112	0.00	29.706 
01:55	53.6	53.6	53.6	59	39.6	3	8	112	0.00	29.706 
02:00	53.9	53.9	53.9	58	39.5	3	9	90	0.00	29.708 
02:05	54.1	54.1	54.1	58	39.7	4	11	90	0.00	29.708 
02:10	54.4	54.4	54.4	58	39.9	4	11	90	0.00	29.708 
02:15	54.5	54.5	54.5	58	40.0	4	9	90	0.00	29.705 
02:20	54.5	54.5	54.5	58	40.0	4	11	90	0.00	29.705 
02:25	54.7	54.7	54.7	58	40.2	3	7	90	0.00	29.705 
02:30	54.8	54.8	54.8	58	40.3	2	7	90	0.00	29.702 
02:35	54.8	54.8	54.8	58	40.3	3	9	90	0.00	29.702 
02:40	55.0	55.0	55.0	58	40.5	4	10	90	0.00	29.702 
02:45	55.1	55.1	55.1	58	40.6	4	10	68	0.00	29.698 
02:50	55.1	55.1	55.1	59	41.0	3	7	90	0.00	29.698 
02:55	55.1	55.1	55.1	58	40.6	4	13	90	0.00	29.698 
03:00	55.1	55.1	55.1	59	41.0	3	10	90	0.00	29.697 
03:05	55.0	55.0	55.0	59	40.9	3	10	90	0.00	29.697 
03:10	54.8	54.8	54.8	59	40.7	2	6	90	0.00	29.697 
03:15	54.7	54.7	54.7	60	41.1	2	5	90	0.00	29.691 
03:20	54.7	54.7	54.7	60	41.1	2	11	90	0.00	29.691 
03:25	54.5	54.5	54.5	62	41.7	2	5	90	0.00	29.691 
03:30	54.5	54.5	54.5	62	41.7	2	6	112	0.00	29.693 
03:35	54.5	54.5	54.5	63	42.2	3	9	90	0.00	29.693 
03:40	54.5	54.5	54.5	63	42.2	4	7	90	0.00	29.693 
03:45	54.4	54.4	54.4	63	42.1	2	5	90	0.00	29.687 
03:50	54.2	54.2	54.2	63	41.9	3	6	90	0.00	29.687 
03:55	53.9	53.9	53.9	63	41.6	2	6	90	0.00	29.687 
04:00	53.6	53.6	53.6	64	41.7	2	5	112	0.00	29.678 
04:05	53.5	53.5	53.5	65	42.0	1	5	90	0.00	29.678 
04:10	53.3	53.3	53.3	66	42.2	2	5	90	0.00	29.678 
04:15	53.1	53.1	53.1	67	42.4	2	5	90	0.00	29.679 
04:20	52.9	52.9	52.9	68	42.6	2	6	112	0.00	29.679 
04:25	52.8	52.8	52.8	69	42.9	2	5	90	0.00	29.679 
04:30	52.6	52.6	52.6	71	43.5	2	4	90	0.00	29.666 
04:35	52.6	52.6	52.6	73	44.2	2	10	68	0.00	29.666 
04:40	52.3	52.3	52.3	74	44.3	1	4	68	0.00	29.666 
04:45	52.2	52.2	52.2	75	44.5	1	4	90	0.00	29.668 
04:50	52.2	52.2	52.2	76	44.9	2	9	90	0.00	29.668 
04:55	52.2	52.2	52.2	77	45.2	3	8	90	0.00	29.668 
05:00	52.0	52.0	52.0	79	45.7	2	7	90	0.00	29.671 
05:05	51.6	51.6	51.6	82	46.3	2	6	90	0.00	29.671 
05:10	51.1	51.1	51.1	83	46.1	1	6	270	0.00	29.671 
05:15	50.8	50.8	50.8	84	46.1	0	4	270	0.00	29.667 
05:20	50.5	50.5	50.5	85	46.2	0	2	270	0.00	29.667 
05:25	50.2	50.2	50.2	86	46.2	0	3	270	0.00	29.667 
05:30	50.1	50.1	50.1	86	46.1	1	3	270	0.00	29.658 
05:35	50.1	50.1	50.1	86	46.1	1	4	292	0.00	29.658 
05:40	50.1	50.1	50.1	85	45.8	1	5	90	0.00	29.658 
05:45	50.2	50.2	50.2	84	45.6	2	4	112	0.00	29.662 
05:50	50.5	50.5	50.5	84	45.8	2	7	90	0.00	29.662 
05:55	50.5	50.5	50.5	84	45.8	2	5	90	0.00	29.662 
06:00	50.5	50.5	50.5	84	45.8	1	7	112	0.00	29.669 
06:05	50.4	50.4	50.4	84	45.7	1	4	112	0.00	29.669 
06:10	50.4	50.4	50.4	85	46.1	2	7	90	0.00	29.669 
06:15	50.2	50.2	50.2	86	46.2	2	7	112	0.00	29.663 
06:20	50.1	50.1	50.1	86	46.1	2	5	112	0.00	29.663 
06:25	50.1	50.1	50.1	87	46.4	1	4	68	0.00	29.663 
06:30	49.9	49.9	49.9	88	46.5	2	6	68	0.01	29.658 
06:35	49.8	49.8	49.8	89	46.7	1	5	90	0.00	29.658 
06:40	49.6	49.6	49.6	90	46.8	1	3	90	0.00	29.658 
06:45	49.4	49.4	49.4	90	46.6	1	4	90	0.00	29.664 
06:50	49.4	49.4	49.4	91	46.9	2	4	90	0.01	29.664 
06:55	49.2	49.2	49.2	92	47.0	1	3	90	0.00	29.664 
07:00	49.2	49.2	49.2	92	47.0	1	4	90	0.00	29.657 
07:05	49.2	49.2	49.2	92	47.0	1	6	90	0.01	29.657 
07:10	49.2	49.2	49.2	92	47.0	2	10	112	0.00	29.657 
07:15	49.2	49.2	49.2	93	47.3	1	4	90	0.00	29.661 
07:20	49.2	49.2	49.2	93	47.3	1	5	90	0.01	29.661 
07:25	49.2	49.2	49.2	93	47.3	1	3	135	0.00	29.661 
07:30	49.2	49.2	49.2	93	47.3	2	5	112	0.00	29.670 
07:35	49.2	49.2	49.2	94	47.5	2	4	112	0.00	29.670 
07:40	49.2	49.2	49.2	94	47.5	1	5	112	0.01	29.670 
07:45	49.2	49.2	49.2	94	47.5	1	5	112	0.00	29.669 
07:50	49.2	49.2	49.2	94	47.5	1	3	112	0.00	29.669 
07:55	49.2	49.2	49.2	94	47.5	1	4	248	0.01	29.669 
08:00	49.2	49.2	49.2	94	47.5	1	4	112	0.00	29.656 
08:05	49.2	49.2	49.2	94	47.5	1	4	112	0.00	29.656 
08:10	49.2	49.2	49.2	94	47.5	0	1	90	0.00	29.656 
08:15	49.2	49.2	49.2	94	47.5	1	4	90	0.00	29.657 
08:20	49.2	49.2	49.2	95	47.8	0	2	90	0.00	29.657 
08:25	49.2	49.2	49.2	95	47.8	0	3	90	0.00	29.657 
08:30	49.2	49.2	49.2	95	47.8	1	3	90	0.00	29.660 
08:35	49.2	49.2	49.2	95	47.8	0	2	90	0.00	29.660 
08:40	49.2	49.2	49.2	95	47.8	1	3	90	0.00	29.660 
08:45	49.4	49.4	49.4	95	48.0	1	3	90	0.01	29.661 
08:50	49.5	49.5	49.5	95	48.1	1	3	90	0.00	29.661 
08:55	49.5	49.5	49.5	95	48.1	0	2	90	0.00	29.661 
09:00	49.6	49.6	49.6	95	48.2	0	5	90	0.00	29.668 
09:05	49.6	49.6	49.6	95	48.2	0	1	90	0.00	29.668 
09:10	49.6	49.6	49.6	95	48.2	0	2	90	0.00	29.668 
09:15	49.6	49.6	49.6	95	48.2	0	2	90	0.01	29.672 
09:20	49.6	49.6	49.6	95	48.2	0	2	90	0.00	29.672 
09:25	49.6	49.6	49.6	95	48.2	0	1	90	0.00	29.672 
09:30	49.6	49.6	49.6	95	48.2	0	1	90	0.00	29.664 
09:35	49.6	49.6	49.6	95	48.2	0	1	90	0.01	29.664 
09:40	49.6	49.6	49.6	95	48.2	0	1	90	0.00	29.664 
09:45	49.6	49.6	49.6	95	48.2	0	1	90	0.00	29.667 
09:50	49.6	49.6	49.6	95	48.2	0	3	90	0.00	29.667 
09:55	49.8	49.8	49.8	95	48.4	0	2	90	0.01	29.667 
10:00	49.8	49.8	49.8	95	48.4	0	2	90	0.00	29.658 
10:05	49.9	49.9	49.9	96	48.8	0	1	90	0.00	29.658 
10:10	49.9	49.9	49.9	96	48.8	0	2	90	0.00	29.658 
10:15	49.9	49.9	49.9	95	48.5	0	2	90	0.00	29.648 
10:20	49.9	49.9	49.9	96	48.8	1	3	90	0.01	29.648 
10:25	49.9	49.9	49.9	96	48.8	0	2	90	0.00	29.648 
10:30	49.9	49.9	49.9	96	48.8	0	2	90	0.00	29.637 
10:35	49.9	49.9	49.9	96	48.8	1	3	90	0.01	29.637 
10:40	49.9	49.9	49.9	96	48.8	0	3	90	0.00	29.637 
10:45	49.9	49.9	49.9	96	48.8	0	2	90	0.01	29.624 
10:50	49.9	49.9	49.9	96	48.8	0	3	90	0.00	29.624 
10:55	49.9	49.9	49.9	96	48.8	0	2	90	0.00	29.624 
11:00	49.9	49.9	49.9	96	48.8	0	2	90	0.00	29.623 
11:05	50.1	50.1	50.1	96	49.0	0	2	90	0.00	29.623 
11:10	50.1	50.1	50.1	96	49.0	0	3	90	0.00	29.623 
11:15	50.1	50.1	50.1	96	49.0	0	2	90	0.00	29.606 
11:20	50.1	50.1	50.1	96	49.0	0	3	90	0.00	29.606 
11:25	50.1	50.1	50.1	96	49.0	0	2	90	0.00	29.606 
11:30	50.1	50.1	50.1	96	49.0	1	3	90	0.00	29.591 
11:35	50.2	50.2	50.2	96	49.1	0	2	90	0.00	29.591 
11:40	50.2	50.2	50.2	96	49.1	0	1	90	0.02	29.591 
11:45	50.2	50.2	50.2	96	49.1	1	2	90	0.02	29.591 
11:50	50.2	50.2	50.2	96	49.1	1	3	90	0.02	29.591 
11:55	50.4	50.4	50.4	96	49.3	1	4	90	0.02	29.591 
12:00	50.4	50.4	50.4	96	49.3	0	2	90	0.01	29.573 
12:05	50.4	50.4	50.4	96	49.3	0	1	90	0.00	29.573 
12:10	50.4	50.4	50.4	96	49.3	0	1	90	0.00	29.573 
12:15	50.4	50.4	50.4	96	49.3	0	2	90	0.01	29.561 
12:20	50.4	50.4	50.4	96	49.3	0	2	90	0.02	29.561 
12:25	50.4	50.4	50.4	96	49.3	1	2	90	0.03	29.561 
12:30	50.4	50.4	50.4	96	49.3	1	3	90	0.02	29.557 
12:35	50.4	50.4	50.4	96	49.3	0	2	90	0.01	29.557 
12:40	50.4	50.4	50.4	96	49.3	0	1	90	0.02	29.557 
12:45	50.4	50.4	50.4	96	49.3	0	1	90	0.03	29.560 
12:50	50.4	50.4	50.4	96	49.3	1	4	90	0.03	29.560 
12:55	50.5	50.5	50.5	96	49.4	0	2	90	0.01	29.560 
13:00	50.7	50.7	50.7	96	49.6	1	4	90	0.00	29.544 
13:05	50.5	50.5	50.5	96	49.4	1	3	248	0.01	29.544 
13:10	50.4	50.4	50.4	96	49.3	1	3	248	0.00	29.544 
13:15	50.1	50.1	50.1	96	49.0	1	3	248	0.00	29.544 
13:20	49.9	49.9	49.9	96	48.8	1	4	270	0.00	29.544 
13:25	49.8	49.8	49.8	96	48.7	0	2	270	0.02	29.544 
13:30	49.6	49.6	49.6	96	48.5	0	1	270	0.01	29.536 
13:35	49.6	49.6	49.6	96	48.5	0	2	270	0.01	29.536 
13:40	49.5	49.5	49.5	96	48.4	0	2	270	0.00	29.536 
13:45	49.4	49.4	49.4	96	48.3	0	1	270	0.02	29.540 
13:50	49.4	49.4	49.4	96	48.3	0	1	270	0.01	29.540 
13:55	49.4	49.4	49.4	96	48.3	0	5	270	0.01	29.540 
14:00	49.2	49.2	49.2	96	48.1	0	2	248	0.01	29.545 
14:05	49.1	49.1	49.1	96	48.0	0	1	248	0.01	29.545 
14:10	49.1	49.1	49.1	96	48.0	0	4	248	0.01	29.545 
14:15	49.1	49.1	49.1	96	48.0	1	3	270	0.02	29.545 
14:20	48.9	48.9	48.9	96	47.8	2	6	248	0.01	29.545 
14:25	48.0	46.6	48.0	95	46.6	4	9	248	0.02	29.545 
14:30	47.4	47.4	47.4	95	46.0	3	9	248	0.01	29.545 
14:35	47.3	47.3	47.3	96	46.2	2	5	248	0.00	29.545 
14:40	47.1	47.1	47.1	95	45.7	2	5	270	0.00	29.545 
14:45	46.8	46.8	46.8	95	45.4	3	7	270	0.01	29.550 
14:50	46.4	46.4	46.4	95	45.0	3	6	248	0.01	29.550 
14:55	46.2	46.2	46.2	95	44.8	2	5	248	0.00	29.550 
15:00	46.2	46.2	46.2	95	44.8	3	10	248	0.00	29.550 
15:05	46.2	46.2	46.2	95	44.8	2	5	248	0.00	29.550 
15:10	46.0	46.0	46.0	95	44.6	3	7	270	0.00	29.550 
15:15	46.0	46.0	46.0	95	44.6	3	7	248	0.00	29.545 
15:20	45.7	45.7	45.7	95	44.4	3	7	270	0.00	29.545 
15:25	44.9	43.0	44.9	94	43.3	4	9	270	0.00	29.545 
15:30	44.8	42.9	44.8	94	43.2	4	10	248	0.00	29.550 
15:35	44.2	42.2	44.2	94	42.6	4	10	270	0.00	29.550 
15:40	43.9	43.9	43.9	94	42.3	3	6	248	0.00	29.550 
15:45	43.9	43.9	43.9	94	42.3	2	4	248	0.00	29.562 
15:50	43.8	43.8	43.8	93	41.9	3	6	248	0.00	29.562 
15:55	43.6	43.6	43.6	93	41.7	1	6	248	0.00	29.562 
16:00	43.3	43.3	43.3	92	41.1	3	11	248	0.00	29.567 
16:05	43.2	43.2	43.2	92	41.0	3	11	248	0.00	29.567 
16:10	43.1	43.1	43.1	91	40.7	3	8	248	0.00	29.567 
16:15	42.9	40.7	42.9	90	40.2	4	11	248	0.00	29.571 
16:20	42.9	42.9	42.9	90	40.2	3	6	248	0.00	29.571 
16:25	42.9	42.9	42.9	89	39.9	3	12	248	0.00	29.571 
16:30	43.1	40.9	43.1	88	39.8	4	10	248	0.00	29.571 
16:35	43.3	43.3	43.3	88	40.0	2	9	248	0.00	29.571 
16:40	43.6	43.6	43.6	86	39.7	3	11	248	0.00	29.571 
16:45	43.8	40.9	43.8	85	39.6	5	12	248	0.00	29.576 
16:50	43.9	41.8	43.9	84	39.4	4	9	248	0.00	29.576 
16:55	43.9	41.8	43.9	81	38.5	4	10	248	0.00	29.576 
17:00	43.9	41.1	43.9	79	37.8	5	14	248	0.00	29.584 
17:05	43.9	41.1	43.9	79	37.8	5	14	248	0.00	29.584 
17:10	44.1	44.1	44.1	79	38.0	3	10	248	0.00	29.584 
17:15	43.9	41.1	43.9	76	36.8	5	14	248	0.00	29.600 
17:20	43.6	40.7	43.6	74	35.9	5	13	248	0.00	29.600 
17:25	43.3	39.7	43.3	73	35.2	6	13	248	0.00	29.600 
17:30	43.3	41.1	43.3	73	35.2	4	12	248	0.00	29.603 
17:35	43.2	40.2	43.2	73	35.1	5	10	248	0.00	29.603 
17:40	43.1	40.9	43.1	73	35.0	4	11	248	0.00	29.603 
17:45	43.1	40.9	43.1	74	35.4	4	15	270	0.00	29.602 
17:50	42.9	40.7	42.9	74	35.2	4	12	270	0.00	29.602 
17:55	42.8	40.6	42.8	74	35.1	4	7	248	0.00	29.602 
18:00	42.5	39.4	42.5	73	34.5	5	14	248	0.00	29.617 
18:05	42.3	39.2	42.3	73	34.3	5	12	248	0.00	29.617 
18:10	41.9	39.5	41.9	73	33.9	4	13	248	0.00	29.617 
18:15	41.8	39.4	41.8	74	34.1	4	12	270	0.00	29.632 
18:20	41.5	38.2	41.5	75	34.2	5	11	248	0.00	29.632 
18:25	41.2	38.7	41.2	76	34.2	4	13	248	0.00	29.632 
18:30	40.9	38.4	40.9	77	34.3	4	12	248	0.00	29.638 
18:35	40.5	37.9	40.5	77	33.9	4	8	248	0.00	29.638 
18:40	40.1	37.4	40.1	79	34.1	4	7	248	0.00	29.638 
18:45	39.6	36.0	39.6	80	33.9	5	11	248	0.00	29.648 
18:50	39.2	36.4	39.2	82	34.2	4	9	270	0.00	29.648 
18:55	38.8	35.9	38.8	82	33.8	4	12	270	0.00	29.648 
19:00	38.5	34.7	38.5	83	33.8	5	11	270	0.00	29.649 
19:05	38.3	34.5	38.3	83	33.6	5	10	270	0.00	29.649 
19:10	38.2	34.4	38.2	84	33.8	5	13	248	0.00	29.649 
19:15	38.0	35.0	38.0	83	33.3	4	12	248	0.00	29.658 
19:20	37.9	34.0	37.9	83	33.2	5	11	248	0.00	29.658 
19:25	37.9	37.9	37.9	83	33.2	3	8	248	0.00	29.658 
19:30	37.8	37.8	37.8	83	33.1	3	7	248	0.00	29.665 
19:35	37.6	33.7	37.6	83	32.9	5	13	270	0.00	29.665 
19:40	37.6	34.5	37.6	82	32.6	4	13	270	0.00	29.665 
19:45	37.5	34.4	37.5	82	32.5	4	10	270	0.00	29.680 
19:50	37.5	33.5	37.5	82	32.5	5	12	248	0.00	29.680 
19:55	37.3	37.3	37.3	82	32.3	3	9	248	0.00	29.680 
20:00	37.3	37.3	37.3	82	32.3	1	4	270	0.00	29.683 
20:05	37.2	37.2	37.2	82	32.2	3	10	248	0.00	29.683 
20:10	36.9	36.9	36.9	81	31.6	3	11	248	0.00	29.683 
20:15	36.9	36.9	36.9	81	31.6	2	6	248	0.00	29.690 
20:20	36.8	32.7	36.8	80	31.2	5	12	248	0.00	29.690 
20:25	36.8	36.8	36.8	80	31.2	3	7	248	0.00	29.690 
20:30	36.8	36.8	36.8	80	31.2	3	9	270	0.00	29.702 
20:35	36.8	36.8	36.8	80	31.2	3	10	248	0.00	29.702 
20:40	36.8	33.6	36.8	80	31.2	4	10	248	0.00	29.702 
20:45	36.8	36.8	36.8	80	31.2	3	8	248	0.00	29.707 
20:50	36.8	36.8	36.8	80	31.2	2	7	248	0.00	29.707 
20:55	36.6	36.6	36.6	79	30.7	3	7	248	0.00	29.707 
21:00	36.6	33.4	36.6	79	30.7	4	9	248	0.00	29.718 
21:05	36.6	33.4	36.6	79	30.7	4	11	248	0.00	29.718 
21:10	36.6	33.4	36.6	79	30.7	4	10	248	0.00	29.718 
21:15	36.6	33.4	36.6	79	30.7	4	9	248	0.00	29.722 
21:20	36.6	36.6	36.6	79	30.7	3	7	248	0.00	29.722 
21:25	36.5	33.3	36.5	79	30.6	4	13	248	0.00	29.722 
21:30	36.5	33.3	36.5	79	30.6	4	11	248	0.00	29.726 
21:35	36.5	36.5	36.5	79	30.6	3	8	248	0.00	29.726 
21:40	36.5	36.5	36.5	79	30.6	3	9	248	0.00	29.726 
21:45	36.5	36.5	36.5	80	30.9	3	9	248	0.00	29.735 
21:50	36.5	36.5	36.5	80	30.9	2	6	248	0.00	29.735 
21:55	36.5	36.5	36.5	80	30.9	3	8	248	0.00	29.735 
22:00	36.3	36.3	36.3	80	30.7	3	7	248	0.00	29.741 
22:05	36.3	33.0	36.3	80	30.7	4	11	248	0.00	29.741 
22:10	36.3	36.3	36.3	80	30.7	3	8	248	0.00	29.741 
22:15	36.2	36.2	36.2	81	30.9	3	7	248	0.00	29.749 
22:20	36.2	36.2	36.2	81	30.9	3	7	248	0.00	29.749 
22:25	36.0	36.0	36.0	81	30.7	2	12	248	0.00	29.749 
22:30	36.0	36.0	36.0	82	31.0	3	13	248	0.00	29.749 
22:35	36.0	32.7	36.0	82	31.0	4	11	248	0.00	29.749 
22:40	36.0	36.0	36.0	82	31.0	3	8	248	0.00	29.749 
22:45	36.0	36.0	36.0	82	31.0	2	7	248	0.00	29.755 
22:50	36.0	36.0	36.0	82	31.0	3	8	248	0.00	29.755 
22:55	36.0	32.7	36.0	82	31.0	4	9	248	0.00	29.755 
23:00	36.0	36.0	36.0	82	31.0	3	5	248	0.00	29.762 
23:05	36.0	36.0	36.0	82	31.0	2	5	248	0.00	29.762 
23:10	35.9	35.9	35.9	83	31.2	2	9	248	0.00	29.762 
23:15	35.9	35.9	35.9	83	31.2	3	9	248	0.00	29.765 
23:20	35.9	35.9	35.9	83	31.2	3	7	248	0.00	29.765 
23:25	35.8	35.8	35.8	83	31.2	2	7	248	0.00	29.765 
23:30	35.8	35.8	35.8	84	31.4	3	6	248	0.00	29.766 
23:35	35.6	35.6	35.6	84	31.3	2	10	248	0.00	29.766 
23:40	35.6	35.6	35.6	84	31.3	3	7	248	0.00	29.766 
23:45	35.5	35.5	35.5	85	31.4	2	6	248	0.00	29.768 
23:50	35.3	35.3	35.3	86	31.5	2	6	248	0.00	29.768 
23:55	35.2	35.2	35.2	86	31.4	2	9	248	0.00	29.768 

CoCoRaHS
IN-AL-39
A2 Web Hosting
Creative Commons License
GoDaddy
search engine by freefind advanced

loaded 2018-11-19 10:31:22 • last modified 2010-11-18 10:43:29
Privacy PolicyDisclaimer
• wx.awcolley.com is powered by PmWiki v.2002016 •
• all content (unless otherwise noted) © 2018 A W Colley